Time;durP1;ratioP1;P1;durP2;ratioP2;P2;SDS_P1;SDS_P2;PMS_P1;PMS_P2;Temp;Humidity;BMP_temperature;BMP_pressure;BME280_temperature;BME280_humidity;BME280_pressure;Samples;Min_cycle;Max_cycle;Signal;HPM_P1;HPM_P2
2023/03/23 00:01:19;;;;;;;13.98;7.90;;;10.40;99.90;;;;;;5103254;28;20052;-80
2023/03/23 00:03:51;;;;;;;10.90;6.93;;;10.40;99.90;;;;;;5085464;28;20095;-80
2023/03/23 00:06:19;;;;;;;12.10;6.97;;;10.40;99.90;;;;;;5086124;28;20052;-80
2023/03/23 00:08:49;;;;;;;12.57;7.20;;;10.40;99.90;;;;;;5102522;28;20413;-80
2023/03/23 00:11:19;;;;;;;11.23;7.20;;;10.40;99.90;;;;;;5103072;28;20516;-80
2023/03/23 00:13:50;;;;;;;13.40;7.00;;;10.40;99.90;;;;;;5068763;28;20127;-80
2023/03/23 00:16:19;;;;;;;14.50;7.18;;;10.40;99.90;;;;;;5119427;28;20049;-80
2023/03/23 00:18:52;;;;;;;13.93;7.03;;;10.40;99.90;;;;;;5069111;28;20041;-80
2023/03/23 00:21:20;;;;;;;12.52;6.70;;;10.40;99.90;;;;;;5069136;28;20048;-80
2023/03/23 00:23:47;;;;;;;10.73;6.85;;;10.40;99.90;;;;;;5085845;28;20040;-80
2023/03/23 00:26:14;;;;;;;11.70;7.03;;;10.40;99.90;;;;;;5069266;28;20489;-80
2023/03/23 00:28:41;;;;;;;15.20;7.35;;;10.40;99.90;;;;;;5068732;28;20044;-80
2023/03/23 00:31:09;;;;;;;11.55;7.50;;;10.40;99.90;;;;;;5068648;28;20102;-80
2023/03/23 00:33:43;;;;;;;13.07;6.75;;;10.50;99.90;;;;;;5102010;28;20048;-80
2023/03/23 00:36:11;;;;;;;10.18;6.80;;;10.50;99.90;;;;;;5068732;28;20041;-80
2023/03/23 00:38:39;;;;;;;13.70;6.80;;;10.50;99.90;;;;;;5068986;28;20037;-80
2023/03/23 00:41:06;;;;;;;9.77;6.63;;;10.50;99.90;;;;;;5085491;28;20088;-80
2023/03/23 00:43:36;;;;;;;11.07;6.22;;;10.50;99.90;;;;;;5085593;28;20041;-80
2023/03/23 00:46:08;;;;;;;11.10;6.50;;;10.50;99.90;;;;;;5084962;28;20041;-80
2023/03/23 00:48:40;;;;;;;11.88;6.97;;;10.50;99.90;;;;;;5102654;28;20566;-80
2023/03/23 00:51:11;;;;;;;19.77;7.10;;;10.60;99.90;;;;;;5068341;28;20040;-80
2023/03/23 00:53:39;;;;;;;11.20;6.63;;;10.60;99.90;;;;;;5101687;28;20052;-80
2023/03/23 00:56:07;;;;;;;12.23;7.07;;;10.50;99.90;;;;;;5068815;28;20041;-80
2023/03/23 00:58:34;;;;;;;11.88;6.05;;;10.60;99.90;;;;;;5101966;28;20114;-80
2023/03/23 01:01:02;;;;;;;12.20;6.50;;;10.60;99.90;;;;;;5102353;28;20074;-80
2023/03/23 01:03:29;;;;;;;15.48;6.60;;;10.60;99.90;;;;;;5068766;28;20037;-80
2023/03/23 01:05:56;;;;;;;14.15;6.50;;;10.60;99.90;;;;;;5084800;28;20524;-80
2023/03/23 01:08:23;;;;;;;10.13;6.32;;;10.60;99.90;;;;;;5102190;28;20044;-80
2023/03/23 01:11:03;;;;;;;11.30;6.05;;;10.50;99.90;;;;;;5089199;28;20048;-80
2023/03/23 01:13:30;;;;;;;16.63;6.43;;;10.50;99.90;;;;;;5072643;28;20049;-80
2023/03/23 01:15:56;;;;;;;13.30;6.68;;;10.50;99.90;;;;;;5072060;28;20516;-80
2023/03/23 01:18:23;;;;;;;12.82;6.25;;;10.50;99.90;;;;;;5072472;28;20505;-80
2023/03/23 01:20:50;;;;;;;11.30;6.60;;;10.50;99.90;;;;;;5089350;28;20044;-79
2023/03/23 01:23:16;;;;;;;10.10;6.15;;;10.50;99.90;;;;;;5072260;28;20044;-80
2023/03/23 01:25:45;;;;;;;9.40;5.40;;;10.50;99.90;;;;;;5105495;28;20497;-80
2023/03/23 01:28:11;;;;;;;13.88;6.43;;;10.50;99.90;;;;;;5088952;28;20115;-80
2023/03/23 01:30:38;;;;;;;10.85;5.90;;;10.50;99.90;;;;;;5088684;28;20047;-80
2023/03/23 01:33:05;;;;;;;12.00;5.63;;;10.50;99.90;;;;;;5121812;28;20065;-80
2023/03/23 01:35:32;;;;;;;10.50;5.30;;;10.50;99.90;;;;;;5089180;28;20048;-80
2023/03/23 01:37:58;;;;;;;9.82;5.97;;;10.50;99.90;;;;;;5104881;28;20131;-80
2023/03/23 01:40:27;;;;;;;10.45;5.45;;;10.50;99.90;;;;;;5072203;28;20044;-79
2023/03/23 01:42:54;;;;;;;9.50;5.55;;;10.50;99.90;;;;;;5088528;28;20508;-80
2023/03/23 01:45:28;;;;;;;8.23;5.15;;;10.50;99.90;;;;;;5071902;28;20040;-80
2023/03/23 01:48:18;;;;;;;10.95;5.05;;;10.40;99.90;;;;;;5072062;28;20045;-80
2023/03/23 01:50:48;;;;;;;10.43;5.45;;;10.40;99.90;;;;;;5088897;28;20056;-80
2023/03/23 01:53:16;;;;;;;10.68;5.55;;;10.50;99.90;;;;;;5105098;28;20052;-80
2023/03/23 01:55:48;;;;;;;9.25;4.97;;;10.40;99.90;;;;;;5071828;28;20140;-80
2023/03/23 01:58:19;;;;;;;13.40;4.15;;;10.40;99.90;;;;;;5087681;28;20029;-80
2023/03/23 02:00:47;;;;;;;9.75;4.38;;;10.40;99.90;;;;;;5071834;28;20076;-79
2023/03/23 02:03:16;;;;;;;8.73;4.80;;;10.40;99.90;;;;;;5104813;28;20041;-80
2023/03/23 02:05:43;;;;;;;10.05;4.80;;;10.40;99.90;;;;;;5088166;28;20038;-80
2023/03/23 02:08:12;;;;;;;7.25;3.72;;;10.40;99.90;;;;;;5120985;28;20083;-80
2023/03/23 02:10:40;;;;;;;6.72;4.20;;;10.40;99.90;;;;;;5104621;28;20072;-80
2023/03/23 02:13:10;;;;;;;8.35;4.05;;;10.40;99.90;;;;;;5088330;28;20087;-80
2023/03/23 02:15:44;;;;;;;8.13;3.70;;;10.40;99.90;;;;;;5088256;28;20033;-80
2023/03/23 02:18:49;;;;;;;9.45;3.92;;;10.40;99.90;;;;;;5071093;28;20033;-80
2023/03/23 02:21:28;;;;;;;7.32;3.22;;;10.40;99.90;;;;;;5069843;28;20400;-79
2023/03/23 02:24:19;;;;;;;7.82;3.50;;;10.40;99.90;;;;;;5104560;28;20090;-80
2023/03/23 02:26:49;;;;;;;7.57;3.33;;;10.40;99.90;;;;;;5071274;28;20082;-80
2023/03/23 02:29:37;;;;;;;8.13;3.38;;;10.40;99.90;;;;;;5104190;28;20044;-80
2023/03/23 02:32:09;;;;;;;8.48;3.47;;;10.30;99.90;;;;;;5087950;28;20119;-80
2023/03/23 02:34:42;;;;;;;6.13;3.00;;;10.40;99.90;;;;;;5087807;28;20045;-80
2023/03/23 02:37:20;;;;;;;9.13;3.55;;;10.40;99.90;;;;;;5103954;28;20409;-80
2023/03/23 02:39:54;;;;;;;6.35;2.90;;;10.40;99.90;;;;;;5071005;28;20033;-80
2023/03/23 02:42:26;;;;;;;5.55;2.78;;;10.40;99.90;;;;;;5087123;28;20041;-80
2023/03/23 02:44:54;;;;;;;8.07;3.05;;;10.40;99.90;;;;;;5070861;28;20045;-79
2023/03/23 02:47:25;;;;;;;6.13;2.97;;;10.40;99.90;;;;;;5087133;28;20044;-80
2023/03/23 02:49:55;;;;;;;5.60;2.85;;;10.40;99.90;;;;;;5104142;28;20095;-80
2023/03/23 02:52:30;;;;;;;5.47;2.97;;;10.40;99.90;;;;;;5070501;28;20052;-80
2023/03/23 02:54:59;;;;;;;5.20;3.07;;;10.40;99.90;;;;;;5070981;28;20080;-80
2023/03/23 02:57:27;;;;;;;7.28;3.08;;;10.40;99.90;;;;;;5103801;28;20084;-79
2023/03/23 02:59:54;;;;;;;6.25;3.10;;;10.30;99.90;;;;;;5087074;28;20051;-80
2023/03/23 03:02:29;;;;;;;8.80;3.10;;;10.30;99.90;;;;;;5086703;28;20125;-79
2023/03/23 03:05:13;;;;;;;8.68;3.03;;;10.30;99.90;;;;;;5070789;28;20504;-80
2023/03/23 03:08:13;;;;;;;7.28;2.63;;;10.40;99.90;;;;;;5103420;28;20061;-79
2023/03/23 03:10:45;;;;;;;5.32;2.85;;;10.40;99.90;;;;;;5070329;28;20586;-80
2023/03/23 03:13:38;;;;;;;8.18;3.08;;;10.40;99.90;;;;;;5103519;28;20201;-80
2023/03/23 03:16:31;;;;;;;5.60;2.80;;;10.40;99.90;;;;;;5070309;28;20127;-80
2023/03/23 03:19:11;;;;;;;7.15;2.78;;;10.40;99.90;;;;;;5103648;28;20037;-80
2023/03/23 03:21:41;;;;;;;8.93;3.00;;;10.40;99.90;;;;;;5103015;28;20048;-80
2023/03/23 03:24:11;;;;;;;6.38;2.80;;;10.40;99.90;;;;;;5103166;28;20123;-80
2023/03/23 03:26:45;;;;;;;8.43;3.13;;;10.40;99.90;;;;;;5086650;28;20045;-80
2023/03/23 03:29:12;;;;;;;5.82;3.08;;;10.40;99.90;;;;;;5103298;28;20093;-80
2023/03/23 03:31:45;;;;;;;5.63;2.47;;;10.40;99.90;;;;;;5102901;28;20135;-80
2023/03/23 03:34:17;;;;;;;8.02;2.45;;;10.40;99.90;;;;;;5069835;28;20523;-80
2023/03/23 03:36:45;;;;;;;7.57;2.65;;;10.40;99.90;;;;;;5069851;28;20041;-79
2023/03/23 03:39:17;;;;;;;6.40;2.65;;;10.40;99.90;;;;;;5086272;28;20047;-80
2023/03/23 03:41:44;;;;;;;7.18;2.75;;;10.40;99.90;;;;;;5102713;28;20041;-79
2023/03/23 03:44:11;;;;;;;6.75;2.80;;;10.40;99.90;;;;;;5102929;28;20179;-80
2023/03/23 03:46:38;;;;;;;5.30;2.50;;;10.40;99.90;;;;;;5086293;28;20078;-80
2023/03/23 03:49:08;;;;;;;6.45;2.75;;;10.30;99.90;;;;;;5069727;28;20048;-80
2023/03/23 03:51:35;;;;;;;7.43;2.80;;;10.30;99.90;;;;;;5086275;28;20037;-79
2023/03/23 03:54:02;;;;;;;5.30;2.70;;;10.30;99.90;;;;;;5086491;28;20067;-79
2023/03/23 03:56:31;;;;;;;6.32;3.13;;;10.30;99.90;;;;;;5102539;28;20433;-80
2023/03/23 03:58:59;;;;;;;8.57;2.92;;;10.30;99.90;;;;;;5069695;28;20044;-79
2023/03/23 04:01:26;;;;;;;7.40;2.90;;;10.30;99.90;;;;;;5102607;28;20051;-79
2023/03/23 04:03:52;;;;;;;7.90;3.05;;;10.30;99.90;;;;;;5103007;28;20033;-79
2023/03/23 04:06:19;;;;;;;6.78;3.00;;;10.30;99.90;;;;;;5085793;28;20124;-80
2023/03/23 04:08:46;;;;;;;7.95;3.25;;;10.30;99.90;;;;;;5102288;28;20588;-80
2023/03/23 04:11:14;;;;;;;6.03;3.05;;;10.30;99.90;;;;;;5086192;28;20037;-80
2023/03/23 04:13:41;;;;;;;6.65;3.17;;;10.30;99.90;;;;;;5069034;28;20045;-80
2023/03/23 04:16:08;;;;;;;7.80;3.10;;;10.40;99.90;;;;;;5069229;28;20053;-80
2023/03/23 04:18:35;;;;;;;6.93;3.33;;;10.40;99.90;;;;;;5085906;28;20044;-80
2023/03/23 04:21:03;;;;;;;10.48;4.88;;;10.40;99.90;;;;;;5086055;28;20041;-80
2023/03/23 04:23:33;;;;;;;6.95;3.40;;;10.40;99.90;;;;;;5102228;28;20094;-79
2023/03/23 04:26:00;;;;;;;4.95;2.88;;;10.40;99.90;;;;;;5085575;28;20076;-80
2023/03/23 04:28:27;;;;;;;4.93;2.80;;;10.40;99.90;;;;;;5085627;28;20057;-80
2023/03/23 04:30:55;;;;;;;6.03;3.25;;;10.40;99.90;;;;;;5085642;28;20073;-80
2023/03/23 04:33:24;;;;;;;8.25;3.30;;;10.40;99.90;;;;;;5102126;28;20045;-80
2023/03/23 04:35:53;;;;;;;7.90;3.45;;;10.40;99.90;;;;;;5101888;28;20052;-80
2023/03/23 04:38:23;;;;;;;6.68;3.17;;;10.40;99.90;;;;;;5102561;28;20108;-80
2023/03/23 04:40:51;;;;;;;7.47;3.40;;;10.40;99.90;;;;;;5085652;28;20037;-80
2023/03/23 04:43:24;;;;;;;6.20;3.10;;;10.40;99.90;;;;;;5119316;28;20086;-79
2023/03/23 04:45:59;;;;;;;7.20;3.50;;;10.40;99.90;;;;;;5089356;28;20045;-80
2023/03/23 04:48:29;;;;;;;9.68;4.13;;;10.50;99.90;;;;;;5106251;28;20041;-80
2023/03/23 04:50:59;;;;;;;8.45;3.45;;;10.50;99.90;;;;;;5105963;28;20477;-80
2023/03/23 04:53:26;;;;;;;6.78;3.33;;;10.60;99.90;;;;;;5089491;28;20048;-79
2023/03/23 04:55:52;;;;;;;8.80;3.47;;;10.60;99.90;;;;;;5089328;28;20110;-80
2023/03/23 04:58:20;;;;;;;9.05;3.30;;;10.60;99.90;;;;;;5073241;28;20041;-80
2023/03/23 05:00:49;;;;;;;9.48;3.50;;;10.60;99.90;;;;;;5088918;28;20037;-79
2023/03/23 05:03:19;;;;;;;7.90;3.83;;;10.60;99.90;;;;;;5073202;28;20049;-80
2023/03/23 05:05:51;;;;;;;7.72;3.60;;;10.60;99.90;;;;;;5072408;28;20044;-80
2023/03/23 05:08:20;;;;;;;7.10;2.50;;;10.60;99.90;;;;;;5056501;28;20064;-80
2023/03/23 05:10:56;;;;;;;5.10;2.10;;;10.50;99.90;;;;;;5088738;28;20490;-80
2023/03/23 05:13:23;;;;;;;4.22;1.75;;;10.30;99.90;;;;;;5072620;28;20615;-80
2023/03/23 05:15:50;;;;;;;7.75;1.70;;;10.20;99.90;;;;;;5072085;28;20040;-80
2023/03/23 05:18:17;;;;;;;5.72;1.52;;;10.10;99.90;;;;;;5089265;28;20123;-80
2023/03/23 05:20:46;;;;;;;5.07;1.40;;;10.00;99.90;;;;;;5088746;28;20561;-80
2023/03/23 05:23:13;;;;;;;7.28;1.67;;;10.00;99.90;;;;;;5088393;28;20041;-80
2023/03/23 05:25:40;;;;;;;5.93;1.85;;;10.00;99.90;;;;;;5105194;28;20037;-80
2023/03/23 05:28:08;;;;;;;6.32;1.25;;;9.90;99.90;;;;;;5105243;28;20049;-80
2023/03/23 05:30:35;;;;;;;5.63;1.30;;;9.90;99.90;;;;;;5087988;28;20044;-80
2023/03/23 05:33:02;;;;;;;6.10;1.55;;;9.90;99.90;;;;;;5071473;28;20041;-79
2023/03/23 05:35:29;;;;;;;4.35;1.50;;;9.90;99.90;;;;;;5087945;28;20083;-80
2023/03/23 05:37:59;;;;;;;4.32;1.50;;;9.90;99.90;;;;;;5071245;28;20080;-80
2023/03/23 05:40:27;;;;;;;4.78;1.88;;;9.90;99.90;;;;;;5105234;28;20128;-80
2023/03/23 05:42:55;;;;;;;3.63;1.27;;;9.80;99.90;;;;;;5071885;28;20037;-79
2023/03/23 05:45:22;;;;;;;6.00;1.70;;;9.80;99.90;;;;;;5072097;28;20048;-79
2023/03/23 05:47:49;;;;;;;4.97;1.30;;;9.80;99.90;;;;;;5071932;28;20043;-80
2023/03/23 05:50:17;;;;;;;6.32;1.70;;;9.80;99.90;;;;;;5071936;28;20052;-79
2023/03/23 05:52:44;;;;;;;6.68;1.85;;;9.80;99.90;;;;;;5088132;28;20076;-79
2023/03/23 05:55:12;;;;;;;6.78;1.55;;;9.80;99.90;;;;;;5088463;28;20037;-80
2023/03/23 05:57:39;;;;;;;7.72;1.52;;;9.80;99.90;;;;;;5071308;28;20124;-80
2023/03/23 06:00:11;;;;;;;6.65;1.40;;;9.80;99.90;;;;;;5071604;28;20131;-79
2023/03/23 06:02:38;;;;;;;7.20;1.80;;;9.80;99.90;;;;;;5104235;28;20032;-79
2023/03/23 06:05:06;;;;;;;5.55;1.48;;;9.90;99.90;;;;;;5088276;28;20037;-80
2023/03/23 06:07:33;;;;;;;6.05;1.63;;;9.90;99.90;;;;;;5087452;28;20057;-80
2023/03/23 06:10:00;;;;;;;10.43;1.58;;;9.90;99.90;;;;;;5071415;28;20044;-79
2023/03/23 06:12:27;;;;;;;6.53;1.92;;;9.90;99.90;;;;;;5071511;28;20362;-79
2023/03/23 06:14:53;;;;;;;11.10;2.05;;;9.90;99.90;;;;;;5071159;28;20578;-79
2023/03/23 06:17:20;;;;;;;7.95;1.80;;;9.90;99.90;;;;;;5087947;28;20041;-79
2023/03/23 06:19:49;;;;;;;9.77;2.08;;;9.90;99.90;;;;;;5071016;28;20048;-80
2023/03/23 06:22:17;;;;;;;12.73;1.80;;;10.00;99.90;;;;;;5071400;28;20053;-79
2023/03/23 06:24:44;;;;;;;8.48;1.88;;;10.00;99.90;;;;;;5104369;28;20033;-79
2023/03/23 06:27:11;;;;;;;4.72;1.60;;;9.90;99.90;;;;;;5088257;28;20535;-79
2023/03/23 06:29:38;;;;;;;9.90;1.98;;;10.00;99.90;;;;;;5087586;28;20041;-79
2023/03/23 06:32:05;;;;;;;7.40;1.88;;;9.90;99.90;;;;;;5071201;28;20041;-79
2023/03/23 06:34:36;;;;;;;8.75;2.10;;;10.00;99.90;;;;;;5070881;28;20047;-79
2023/03/23 06:37:02;;;;;;;14.18;3.38;;;10.00;99.90;;;;;;5103582;28;20052;-79
2023/03/23 06:39:29;;;;;;;11.45;1.95;;;10.00;99.90;;;;;;5104086;28;20499;-79
2023/03/23 06:41:59;;;;;;;8.55;1.90;;;10.10;99.90;;;;;;5070614;28;20047;-80
2023/03/23 06:44:25;;;;;;;11.90;2.45;;;10.10;99.90;;;;;;5070712;28;20051;-80
2023/03/23 06:46:52;;;;;;;11.57;2.20;;;10.10;99.90;;;;;;5070284;28;20041;-80
2023/03/23 06:49:19;;;;;;;12.93;2.15;;;10.20;99.90;;;;;;5087181;28;20045;-79
2023/03/23 06:51:46;;;;;;;7.53;2.40;;;10.20;99.90;;;;;;5070634;28;20110;-80
2023/03/23 06:54:12;;;;;;;9.70;2.25;;;10.20;99.90;;;;;;5087264;28;20076;-80
2023/03/23 06:56:39;;;;;;;13.77;2.40;;;10.30;99.90;;;;;;5070536;28;20048;-80
2023/03/23 06:59:07;;;;;;;9.13;2.58;;;10.30;99.90;;;;;;5087056;28;20040;-80
2023/03/23 07:01:33;;;;;;;15.93;2.78;;;10.30;99.90;;;;;;5070631;28;20037;-80
2023/03/23 07:04:00;;;;;;;16.38;2.72;;;10.30;99.90;;;;;;5087368;28;20047;-80
2023/03/23 07:06:27;;;;;;;14.68;2.47;;;10.30;99.90;;;;;;5069952;28;20041;-80
2023/03/23 07:08:53;;;;;;;13.02;2.42;;;10.30;99.90;;;;;;5070143;28;20088;-80
2023/03/23 07:11:20;;;;;;;15.98;2.83;;;10.40;99.90;;;;;;5103639;28;20044;-79
2023/03/23 07:13:47;;;;;;;13.73;2.45;;;10.40;99.90;;;;;;5086858;28;20045;-79
2023/03/23 07:16:13;;;;;;;16.00;2.67;;;10.40;99.90;;;;;;5103425;28;20379;-79
2023/03/23 07:18:40;;;;;;;9.50;2.20;;;10.40;99.90;;;;;;5070355;28;20094;-79
2023/03/23 07:21:07;;;;;;;11.55;2.22;;;10.50;99.90;;;;;;5070222;28;20043;-79
2023/03/23 07:23:34;;;;;;;10.40;2.25;;;10.50;99.90;;;;;;5069938;28;20033;-79
2023/03/23 07:26:03;;;;;;;11.77;2.30;;;10.50;99.90;;;;;;5069623;28;20506;-80
2023/03/23 07:28:29;;;;;;;12.40;2.58;;;10.50;99.90;;;;;;5069972;28;20103;-80
2023/03/23 07:30:56;;;;;;;16.50;2.35;;;10.50;99.90;;;;;;5070225;28;20052;-80
2023/03/23 07:33:23;;;;;;;15.90;2.72;;;10.50;99.90;;;;;;5069600;28;20056;-80
2023/03/23 07:35:49;;;;;;;17.00;3.13;;;10.50;99.90;;;;;;5069114;28;20036;-80
2023/03/23 07:38:16;;;;;;;14.48;2.75;;;10.50;99.90;;;;;;5053380;28;20083;-80
2023/03/23 07:40:43;;;;;;;16.90;3.13;;;10.50;99.90;;;;;;5069518;28;20041;-80
2023/03/23 07:43:10;;;;;;;10.00;2.22;;;10.50;99.90;;;;;;5102556;28;20075;-80
2023/03/23 07:45:37;;;;;;;16.48;2.55;;;10.50;99.90;;;;;;5069768;28;20041;-79
2023/03/23 07:48:05;;;;;;;18.25;4.35;;;10.50;99.90;;;;;;5069816;28;20354;-80
2023/03/23 07:50:32;;;;;;;11.48;3.15;;;10.60;99.90;;;;;;5069891;28;20493;-79
2023/03/23 07:52:59;;;;;;;12.30;2.30;;;10.60;99.90;;;;;;5085706;28;20048;-80
2023/03/23 07:55:27;;;;;;;11.80;3.30;;;10.70;99.90;;;;;;5086536;28;20530;-80
2023/03/23 07:57:54;;;;;;;11.30;2.72;;;10.70;99.90;;;;;;5085785;28;20072;-80
2023/03/23 08:00:23;;;;;;;18.00;3.30;;;10.70;99.90;;;;;;5069179;28;20028;-80
2023/03/23 08:02:55;;;;;;;12.27;2.70;;;10.80;99.90;;;;;;5069579;28;20033;-80
2023/03/23 08:05:23;;;;;;;19.55;2.92;;;10.80;99.90;;;;;;5085707;28;20793;-80
2023/03/23 08:07:51;;;;;;;14.77;2.65;;;10.90;99.90;;;;;;5085522;28;20080;-80
2023/03/23 08:10:18;;;;;;;18.15;3.08;;;10.90;99.90;;;;;;5036960;28;20044;-80
2023/03/23 08:12:46;;;;;;;18.45;3.35;;;11.00;99.90;;;;;;5035892;28;20060;-80
2023/03/23 08:15:14;;;;;;;17.35;2.83;;;11.00;99.90;;;;;;5117387;28;20251;-81
2023/03/23 08:17:42;;;;;;;14.18;2.80;;;11.00;99.90;;;;;;5085393;28;20033;-85
2023/03/23 08:20:12;;;;;;;16.85;3.13;;;11.10;99.90;;;;;;5051549;28;20084;-80
2023/03/23 08:22:41;;;;;;;9.15;2.20;;;11.10;99.90;;;;;;5083274;28;20029;-81
2023/03/23 08:25:10;;;;;;;17.52;2.97;;;11.10;99.90;;;;;;5067934;28;20489;-80
2023/03/23 08:27:37;;;;;;;17.20;2.70;;;11.20;99.90;;;;;;5085607;28;20424;-79
2023/03/23 08:30:05;;;;;;;12.43;2.47;;;11.20;99.90;;;;;;5084488;28;20041;-80
2023/03/23 08:32:32;;;;;;;20.98;2.70;;;11.20;99.90;;;;;;5068477;28;20083;-79
2023/03/23 08:34:59;;;;;;;17.05;2.45;;;11.30;99.90;;;;;;5052205;28;20134;-80
2023/03/23 08:37:26;;;;;;;14.40;2.40;;;11.30;99.90;;;;;;5052479;28;20055;-80
2023/03/23 08:39:54;;;;;;;19.17;3.45;;;11.30;99.90;;;;;;5052065;28;20497;-80
2023/03/23 08:42:23;;;;;;;15.63;2.95;;;11.30;99.90;;;;;;5084903;28;20033;-79
2023/03/23 08:44:50;;;;;;;18.98;2.85;;;11.40;99.90;;;;;;5102039;28;20033;-79
2023/03/23 08:47:17;;;;;;;12.23;2.65;;;11.50;99.90;;;;;;5084469;28;20124;-81
2023/03/23 08:49:45;;;;;;;24.30;3.20;;;11.60;99.90;;;;;;5068059;28;20083;-81
2023/03/23 08:52:11;;;;;;;13.60;2.80;;;11.60;99.90;;;;;;5084623;28;20045;-81
2023/03/23 08:54:38;;;;;;;17.30;3.50;;;11.60;99.90;;;;;;5084501;28;20051;-80
2023/03/23 08:57:05;;;;;;;15.63;2.95;;;11.50;99.90;;;;;;5084447;28;20075;-81
2023/03/23 08:59:32;;;;;;;16.20;2.55;;;11.50;99.90;;;;;;5068472;28;20037;-80
2023/03/23 09:01:59;;;;;;;17.00;2.75;;;11.40;99.90;;;;;;5067801;28;20057;-81
2023/03/23 09:04:26;;;;;;;18.38;3.00;;;11.50;99.90;;;;;;5084794;28;20037;-80
2023/03/23 09:06:52;;;;;;;15.88;2.65;;;11.60;99.90;;;;;;5067857;28;20040;-81
2023/03/23 09:09:19;;;;;;;15.45;3.45;;;11.70;99.90;;;;;;5067484;28;20420;-81
2023/03/23 09:11:46;;;;;;;18.35;2.63;;;11.70;99.90;;;;;;5051558;28;20051;-81
2023/03/23 09:14:13;;;;;;;21.27;3.55;;;11.70;99.90;;;;;;5067830;28;20128;-81
2023/03/23 09:16:40;;;;;;;19.80;3.05;;;11.80;99.90;;;;;;5051352;28;20041;-81
2023/03/23 09:19:08;;;;;;;16.85;3.42;;;11.90;99.90;;;;;;5051364;28;20068;-81
2023/03/23 09:21:36;;;;;;;19.75;3.08;;;11.80;99.90;;;;;;5068028;28;20037;-81
2023/03/23 09:24:02;;;;;;;18.25;3.13;;;11.70;99.90;;;;;;5051539;28;20044;-82
2023/03/23 09:26:30;;;;;;;15.73;2.85;;;11.70;99.90;;;;;;5067927;28;20040;-81
2023/03/23 09:28:57;;;;;;;20.02;2.83;;;11.70;99.90;;;;;;5067954;28;20041;-83
2023/03/23 09:31:26;;;;;;;20.73;3.58;;;11.70;99.90;;;;;;5104069;28;20071;-81
2023/03/23 09:33:56;;;;;;;21.05;3.13;;;11.80;99.90;;;;;;5088209;28;20048;-81
2023/03/23 09:36:25;;;;;;;29.25;3.78;;;12.00;99.90;;;;;;5087235;28;20497;-81
2023/03/23 09:38:52;;;;;;;17.63;2.70;;;12.30;99.90;;;;;;5121812;28;20098;-81
2023/03/23 09:41:37;;;;;;;19.88;3.97;;;12.40;99.90;;;;;;5071693;28;20033;-80
2023/03/23 09:44:19;;;;;;;13.70;3.27;;;12.60;99.90;;;;;;5104897;28;20041;-80
2023/03/23 09:47:17;;;;;;;19.50;2.85;;;12.40;99.90;;;;;;5104659;28;20298;-80
2023/03/23 09:50:19;;;;;;;19.48;3.42;;;12.30;99.90;;;;;;5083743;28;20131;-81
2023/03/23 09:52:58;;;;;;;17.35;2.58;;;12.10;99.90;;;;;;5071489;28;20132;-81
2023/03/23 09:55:25;;;;;;;15.23;2.58;;;11.90;99.90;;;;;;5087611;28;20047;-80
2023/03/23 09:58:14;;;;;;;13.90;2.83;;;11.70;99.90;;;;;;5055262;28;20029;-79
2023/03/23 10:01:15;;;;;;;14.13;2.75;;;11.60;99.90;;;;;;5070758;28;20045;-80
2023/03/23 10:03:45;;;;;;;15.77;2.92;;;11.60;99.90;;;;;;5071289;28;20045;-80
2023/03/23 10:06:19;;;;;;;19.88;3.63;;;11.70;99.90;;;;;;5071504;28;20820;-82
2023/03/23 10:08:52;;;;;;;19.55;3.28;;;11.70;99.90;;;;;;5070645;28;20065;-79
2023/03/23 10:11:51;;;;;;;13.63;3.22;;;11.70;99.90;;;;;;5083668;28;20563;-79
2023/03/23 10:14:49;;;;;;;18.65;2.78;;;11.70;99.90;;;;;;5050824;28;20143;-79
2023/03/23 10:17:26;;;;;;;15.90;2.72;;;11.70;99.90;;;;;;5083532;28;20099;-79
2023/03/23 10:20:19;;;;;;;11.70;2.63;;;11.70;99.90;;;;;;5067463;28;20045;-79
2023/03/23 10:23:09;;;;;;;12.25;2.75;;;11.70;99.90;;;;;;5067374;28;20045;-79
2023/03/23 10:25:41;;;;;;;9.65;1.92;;;11.70;99.90;;;;;;5067487;28;20045;-79
2023/03/23 10:28:20;;;;;;;12.18;2.17;;;11.80;99.90;;;;;;5065565;28;20079;-79
2023/03/23 10:30:55;;;;;;;14.85;2.97;;;11.90;99.90;;;;;;5070468;28;20821;-79
2023/03/23 10:33:40;;;;;;;17.85;2.60;;;12.00;99.90;;;;;;5070488;28;20041;-79
2023/03/23 10:36:25;;;;;;;15.50;2.83;;;12.10;99.90;;;;;;5070399;28;20077;-79
2023/03/23 10:39:05;;;;;;;14.05;2.50;;;12.20;99.90;;;;;;5087018;28;20045;-79
2023/03/23 10:41:32;;;;;;;20.73;3.47;;;12.20;99.90;;;;;;5069606;28;20072;-79
2023/03/23 10:44:01;;;;;;;14.50;2.83;;;12.40;99.90;;;;;;5087483;28;20068;-79
2023/03/23 10:46:39;;;;;;;18.30;2.78;;;12.50;99.90;;;;;;5086538;28;20052;-79
2023/03/23 10:49:11;;;;;;;14.45;2.47;;;12.80;99.90;;;;;;5086801;28;20463;-80
2023/03/23 10:51:43;;;;;;;13.15;3.05;;;13.00;99.90;;;;;;5120283;28;20557;-79
2023/03/23 10:54:10;;;;;;;14.82;2.35;;;13.00;99.90;;;;;;5069910;28;20493;-79
2023/03/23 10:56:44;;;;;;;12.80;3.35;;;13.10;99.90;;;;;;5070134;28;20044;-79
2023/03/23 10:59:28;;;;;;;13.27;2.40;;;13.20;99.90;;;;;;5086826;28;20563;-79
2023/03/23 11:01:58;;;;;;;10.13;2.60;;;13.40;99.90;;;;;;5101354;28;20489;-80
2023/03/23 11:04:26;;;;;;;9.80;2.00;;;13.40;99.90;;;;;;5069842;28;20039;-79
2023/03/23 11:06:58;;;;;;;12.50;2.35;;;13.50;99.90;;;;;;5054183;28;20045;-80
2023/03/23 11:09:38;;;;;;;13.20;2.13;;;13.40;99.90;;;;;;5070058;28;20057;-80
2023/03/23 11:12:16;;;;;;;10.90;2.50;;;13.40;99.90;;;;;;5070323;28;20045;-79
2023/03/23 11:14:44;;;;;;;13.13;2.17;;;13.50;99.90;;;;;;5055620;28;20097;-80
2023/03/23 11:17:24;;;;;;;12.10;2.65;;;13.50;99.90;;;;;;5070070;28;20063;-80
2023/03/23 11:19:54;;;;;;;12.93;2.30;;;13.50;99.90;;;;;;5069964;28;20037;-80
2023/03/23 11:22:27;;;;;;;13.15;2.63;;;13.40;99.90;;;;;;5069987;28;20037;-80
2023/03/23 11:24:56;;;;;;;18.38;2.90;;;13.60;99.90;;;;;;5086771;28;20076;-80
2023/03/23 11:27:24;;;;;;;10.35;2.00;;;13.70;99.90;;;;;;5085810;28;20520;-80
2023/03/23 11:29:53;;;;;;;10.88;2.10;;;13.70;99.90;;;;;;5069332;28;20512;-79
2023/03/23 11:32:26;;;;;;;11.02;2.22;;;13.60;99.90;;;;;;5068996;28;20037;-84
2023/03/23 11:35:04;;;;;;;11.45;2.13;;;13.70;99.90;;;;;;5069914;28;20094;-86
2023/03/23 11:37:48;;;;;;;13.02;2.08;;;13.80;99.90;;;;;;5102741;28;20049;-87
2023/03/23 11:40:21;;;;;;;11.68;2.17;;;13.80;99.90;;;;;;5070238;28;20033;-82
2023/03/23 11:43:10;;;;;;;8.50;1.58;;;14.00;99.90;;;;;;5070108;28;20037;-81
2023/03/23 11:45:50;;;;;;;8.68;2.13;;;13.80;99.90;;;;;;5092502;28;20065;-81
2023/03/23 11:48:19;;;;;;;10.18;2.10;;;13.70;99.90;;;;;;5070213;28;20087;-82
2023/03/23 11:51:09;;;;;;;12.57;2.03;;;13.60;99.90;;;;;;5070115;28;20041;-82
2023/03/23 11:53:54;;;;;;;6.97;1.75;;;13.50;99.90;;;;;;5069655;28;20460;-82
2023/03/23 11:56:26;;;;;;;10.50;2.20;;;13.60;99.90;;;;;;5069875;28;20128;-82
2023/03/23 11:58:55;;;;;;;8.77;1.85;;;13.90;99.90;;;;;;5070052;28;20040;-81
2023/03/23 12:01:29;;;;;;;9.75;1.80;;;14.20;99.90;;;;;;5069702;28;20033;-81
2023/03/23 12:04:09;;;;;;;7.67;1.73;;;14.30;99.90;;;;;;5086686;28;20051;-81
2023/03/23 12:07:07;;;;;;;9.38;1.67;;;14.50;99.90;;;;;;5086510;28;20410;-82
2023/03/23 12:10:10;;;;;;;10.57;1.90;;;14.70;99.90;;;;;;5069981;28;20041;-81
2023/03/23 12:12:58;;;;;;;8.82;1.95;;;14.80;99.90;;;;;;5051408;28;20108;-82
2023/03/23 12:15:46;;;;;;;9.00;2.28;;;14.70;99.90;;;;;;5069974;28;20123;-82
2023/03/23 12:18:40;;;;;;;10.25;2.13;;;14.40;99.90;;;;;;5070071;28;20083;-81
2023/03/23 12:21:16;;;;;;;9.98;1.88;;;14.20;99.90;;;;;;5069720;28;20439;-82
2023/03/23 12:24:00;;;;;;;8.77;2.25;;;14.10;99.90;;;;;;5069750;28;20124;-82
2023/03/23 12:27:01;;;;;;;11.65;1.73;;;13.80;99.90;;;;;;5069717;28;20040;-82
2023/03/23 12:29:46;;;;;;;12.15;2.03;;;13.70;99.90;;;;;;5102906;28;20485;-82
2023/03/23 12:32:47;;;;;;;9.27;1.80;;;13.90;99.90;;;;;;5103243;28;20048;-81
2023/03/23 12:35:55;;;;;;;10.40;1.80;;;14.20;99.90;;;;;;5086481;28;20052;-82
2023/03/23 12:38:42;;;;;;;6.28;1.50;;;14.50;99.90;;;;;;5069744;28;20545;-82
2023/03/23 12:41:19;;;;;;;11.63;2.03;;;14.80;99.90;;;;;;5070045;28;20041;-81
2023/03/23 12:44:10;;;;;;;6.70;1.60;;;14.90;99.90;;;;;;5066191;28;20048;-82
2023/03/23 12:47:20;;;;;;;7.03;1.73;;;14.90;99.90;;;;;;5066175;28;20042;-82
2023/03/23 12:50:09;;;;;;;7.53;1.77;;;15.00;99.90;;;;;;5049941;28;20095;-82
2023/03/23 12:52:58;;;;;;;8.10;1.45;;;14.90;99.90;;;;;;5066173;28;20053;-82
2023/03/23 12:55:51;;;;;;;12.20;2.25;;;14.80;99.90;;;;;;5066324;28;20038;-82
2023/03/23 12:58:34;;;;;;;7.93;1.73;;;14.80;99.90;;;;;;5082941;28;20041;-82
2023/03/23 13:01:12;;;;;;;6.85;1.83;;;14.90;99.90;;;;;;5067788;28;20041;-81
2023/03/23 13:03:49;;;;;;;6.72;1.98;;;14.90;99.90;;;;;;5050555;28;20048;-82
2023/03/23 13:06:30;;;;;;;7.40;1.50;;;14.80;99.90;;;;;;5052545;28;20473;-81
2023/03/23 13:09:12;;;;;;;10.90;1.60;;;14.70;99.90;;;;;;5102782;28;20514;-82